ADDS METAR Data INFO
IDs: Format: Raw Decoded Include TAF

Data at: 0858 UTC 22 Feb 2018

KLIT 220853Z 34009KT 10SM OVC008 03/03 A3032 RMK AO2 SLP270 60000 T00330028 53008 $
KLIT 220753Z 03008KT 10SM OVC009 03/03 A3027 RMK AO2 RAE0655 SLP252 P0000 T00330028 $
KLIT 220653Z 09012G16KT 10SM -RA BKN009 OVC110 03/03 A3025 RMK AO2 RAE14B43 SLP246 P0000 T00330033 $
KLIT 220553Z 08006KT 10SM -RA BKN009 BKN090 OVC200 03/03 A3029 RMK AO2 SLP261 P0001 60109 T00330028 10067 20028 401560028 58011 $
KLIT 220453Z 01013G20KT 10SM -RA BKN009 OVC040 03/02 A3033 RMK AO2 SLP273 P0010 T00280022 $
KLIT 220401Z 33016KT 3SM RA BR BKN007 OVC030 03/03 A3036 RMK AO2 P0008 T00330033 $
KLIT 220353Z 34015KT 1SM +RA BR OVC007 03/03 A3036 RMK AO2 SLP283 P0038 T00330033 RVRNO $
KLIT 212353Z 03009KT 6SM -RA BR OVC007 07/07 A3026 RMK AO2 SLP252 -RA OCNL RA P0007 60046 T00670067 10067 20061 55019
KLIT 212253Z 07016G20KT 4SM RA BR BKN007 OVC025 06/06 A3023 RMK AO2 SLP240 P0010 T00610061
KLIT 212153Z 07012KT 6SM -RA BR BKN007 OVC014 06/06 A3029 RMK AO2 SLP260 P0006 T00610061 $
KLIT 212053Z 06009KT 4SM RA BR BKN007 OVC016 07/07 A3032 RMK AO2 SLP269 P0009 60023 T00670067 58009
KLIT 211953Z 06009KT 3SM RA OVC009 06/06 A3034 RMK AO2 SLP276 CIG 008V011 P0011 T00610061
KLIT 211853Z 03011KT 7SM -RA OVC008 06/06 A3034 RMK AO2 PRESFR SLP275 P0003 T00610061
KLIT 211753Z 04015G19KT 10SM -RA BKN008 BKN050 OVC100 07/06 A3035 RMK AO2 SLP279 BKN008 V SCT P0004 60103 T00670061 10083 20067 50005
KLIT 211653Z 02011KT 7SM -RA BKN008 BKN027 OVC070 07/06 A3040 RMK AO2 SLP297 BKN008 V SCT P0017 T00670061
KLIT 211553Z 01010KT 3SM +RA BR BKN008 OVC014 07/07 A3038 RMK AO2 SLP291 VIS 1V5 P0020 T00670067 $
KLIT 211507Z 03011KT 3SM +RA BR BKN008 OVC017 07/07 A3034 RMK AO2 VIS 1V5 P0002 T00720072 $
KLIT 211453Z 03012KT 3SM +RA BR SCT008 OVC024 07/07 A3033 RMK AO2 SLP272 SCT008V BKN VIS 1V5 P0015 60062 T00720072 52020 $
KLIT 211353Z 03010KT 3SM +RA BR SCT006 BKN016 OVC040 08/08 A3031 RMK AO2 SLP264 VIS 1V5 P0019 T00780078
KLIT 211253Z 01008KT 3SM +RA BR SCT006 BKN016 OVC070 08/08 A3030 RMK AO2 SLP261 VIS 1V5 P0028 T00830083
KLIT 210753Z 35010KT 3SM +RA BR BKN010 BKN015 OVC027 14/14 A3015 RMK AO2 SLP210 VIS 1V5 BKN010 V SCT P0022 T01440144
KLIT 210741Z 35003KT 6SM -RA BR BKN010 BKN015 OVC027 14/14 A3015 RMK AO2 LTG DSNT W BKN010 V SCT P0019 T01440144
KLIT 210653Z VRB03KT 3SM -RA BR SCT009 BKN015 OVC032 15/15 A3014 RMK AO2 PRESRR SLP207 VIS 1V5 P0027 T01500150
KLIT 210553Z 32011KT 3SM RA BR SCT006 BKN013 OVC019 16/16 A3009 RMK AO2 RAB0457E14B22 SLP189 VIS 1V5 P0006 60014 T01560156 10239 20156 402720156 51029